Time;durP1;ratioP1;P1;durP2;ratioP2;P2;SDS_P1;SDS_P2;PMS_P1;PMS_P2;Temp;Humidity;BMP_temperature;BMP_pressure;BME280_temperature;BME280_humidity;BME280_pressure;Samples;Min_cycle;Max_cycle;Signal;HPM_P1;HPM_P2
2022/01/31 00:01:17;;;;;;;15.93;6.35;;;;;;;;;;4950312;28;106991;-63
2022/01/31 00:03:44;;;;;;;22.25;6.75;;;;;;;;;;4950441;28;107309;-63
2022/01/31 00:06:10;;;;;;;21.38;6.63;;;;;;;;;;4950256;28;106476;-63
2022/01/31 00:08:36;;;;;;;27.35;7.60;;;;;;;;;;4966912;28;107998;-65
2022/01/31 00:11:03;;;;;;;25.63;6.65;;;;;;;;;;4950545;28;106704;-65
2022/01/31 00:13:36;;;;;;;26.58;6.70;;;;;;;;;;4949535;28;105759;-63
2022/01/31 00:16:04;;;;;;;30.80;7.13;;;;;;;;;;4950455;28;107190;-65
2022/01/31 00:18:30;;;;;;;23.98;6.47;;;;;;;;;;4950769;28;106137;-63
2022/01/31 00:20:56;;;;;;;30.25;7.65;;;;;;;;;;4949923;28;107198;-63
2022/01/31 00:23:23;;;;;;;22.63;6.13;;;;;;;;;;4950385;28;107464;-62
2022/01/31 00:25:49;;;;;;;27.15;6.00;;;;;;;;;;4951093;28;106245;-62
2022/01/31 00:28:15;;;;;;;26.92;6.72;;;;;;;;;;4949698;28;107702;-64
2022/01/31 00:30:42;;;;;;;18.80;5.50;;;;;;;;;;4954217;28;107425;-63
2022/01/31 00:33:08;;;;;;;20.48;6.07;;;;;;;;;;4950547;28;106767;-63
2022/01/31 00:35:35;;;;;;;20.20;5.25;;;;;;;;;;4950568;28;107438;-63
2022/01/31 00:38:03;;;;;;;23.35;5.40;;;;;;;;;;4949717;28;106726;-63
2022/01/31 00:40:29;;;;;;;29.75;5.85;;;;;;;;;;4951406;28;107289;-64
2022/01/31 00:42:56;;;;;;;25.08;6.00;;;;;;;;;;4948926;28;106306;-65
2022/01/31 00:45:27;;;;;;;31.33;6.35;;;;;;;;;;4949638;28;107307;-64
2022/01/31 00:48:06;;;;;;;25.13;5.82;;;;;;;;;;4950940;28;106711;-64
2022/01/31 00:50:38;;;;;;;26.98;5.95;;;;;;;;;;4964478;28;108822;-65
2022/01/31 00:53:05;;;;;;;26.08;6.63;;;;;;;;;;4955056;28;105770;-65
2022/01/31 00:55:31;;;;;;;22.98;6.18;;;;;;;;;;4950748;28;107248;-64
2022/01/31 00:57:58;;;;;;;30.83;8.13;;;;;;;;;;4950199;28;108253;-64
2022/01/31 01:00:24;;;;;;;31.63;7.32;;;;;;;;;;4962003;28;106622;-64
2022/01/31 01:02:51;;;;;;;26.45;7.80;;;;;;;;;;4946351;28;110668;-64
2022/01/31 01:05:20;;;;;;;35.10;8.60;;;;;;;;;;4936690;28;106241;-64
2022/01/31 01:07:46;;;;;;;30.25;8.63;;;;;;;;;;4949226;28;106888;-65
2022/01/31 01:10:14;;;;;;;21.33;8.40;;;;;;;;;;4941857;28;106791;-65
2022/01/31 01:12:40;;;;;;;29.55;8.07;;;;;;;;;;4942913;28;106419;-64
2022/01/31 01:15:07;;;;;;;28.02;8.18;;;;;;;;;;4951779;28;108519;-67
2022/01/31 01:17:34;;;;;;;27.55;8.68;;;;;;;;;;4950244;28;106637;-65
2022/01/31 01:20:00;;;;;;;25.98;9.05;;;;;;;;;;4948762;28;106105;-64
2022/01/31 01:22:27;;;;;;;31.08;8.70;;;;;;;;;;4949006;28;109675;-64
2022/01/31 01:24:53;;;;;;;35.90;9.27;;;;;;;;;;4950651;28;106911;-64
2022/01/31 01:27:20;;;;;;;26.08;9.13;;;;;;;;;;4939683;28;108242;-64
2022/01/31 01:29:48;;;;;;;27.40;7.45;;;;;;;;;;4953910;28;108326;-64
2022/01/31 01:32:17;;;;;;;39.40;9.77;;;;;;;;;;4948872;28;106688;-64
2022/01/31 01:34:44;;;;;;;30.20;9.45;;;;;;;;;;4946104;28;108259;-64
2022/01/31 01:37:13;;;;;;;31.80;8.88;;;;;;;;;;4952209;28;106217;-65
2022/01/31 01:39:41;;;;;;;34.45;8.43;;;;;;;;;;4949840;28;105738;-64
2022/01/31 01:42:09;;;;;;;36.57;11.03;;;;;;;;;;4930563;28;108840;-65
2022/01/31 01:44:39;;;;;;;39.47;10.30;;;;;;;;;;4951285;28;105948;-64
2022/01/31 01:47:09;;;;;;;31.38;9.13;;;;;;;;;;4954895;28;108572;-64
2022/01/31 01:49:36;;;;;;;28.23;8.52;;;;;;;;;;4949776;28;107294;-64
2022/01/31 01:52:05;;;;;;;23.92;7.43;;;;;;;;;;4949327;28;106148;-65
2022/01/31 01:54:31;;;;;;;25.08;8.88;;;;;;;;;;4949520;28;106789;-64
2022/01/31 01:56:58;;;;;;;27.13;8.50;;;;;;;;;;4948512;28;107479;-64
2022/01/31 01:59:25;;;;;;;28.33;7.53;;;;;;;;;;4949508;28;107456;-64
2022/01/31 02:02:12;;;;;;;24.63;8.23;;;;;;;;;;4941976;28;107397;-65
2022/01/31 02:04:40;;;;;;;20.02;7.28;;;;;;;;;;4930744;28;106056;-65
2022/01/31 02:07:16;;;;;;;29.65;7.55;;;;;;;;;;4947136;28;105995;-62
2022/01/31 02:10:08;;;;;;;19.85;6.88;;;;;;;;;;4947806;28;110285;-65
2022/01/31 02:12:54;;;;;;;19.45;6.43;;;;;;;;;;4909073;28;107210;-65
2022/01/31 02:15:41;;;;;;;22.80;7.50;;;;;;;;;;4928246;28;107197;-65
2022/01/31 02:18:29;;;;;;;17.90;6.70;;;;;;;;;;4933183;28;108565;-65
2022/01/31 02:20:57;;;;;;;17.38;6.22;;;;;;;;;;4946169;28;106785;-64
2022/01/31 02:23:25;;;;;;;19.35;6.30;;;;;;;;;;4927055;28;108883;-64
2022/01/31 02:26:10;;;;;;;15.20;6.00;;;;;;;;;;4919208;28;105717;-64
2022/01/31 02:28:51;;;;;;;16.30;7.05;;;;;;;;;;4910944;28;108201;-64
2022/01/31 02:31:19;;;;;;;21.95;7.53;;;;;;;;;;4920479;28;109239;-64
2022/01/31 02:33:47;;;;;;;24.52;7.07;;;;;;;;;;4928894;28;106024;-64
2022/01/31 02:36:13;;;;;;;16.35;6.90;;;;;;;;;;4918700;28;108648;-64
2022/01/31 02:38:40;;;;;;;23.17;6.80;;;;;;;;;;4927761;28;108829;-65
2022/01/31 02:41:07;;;;;;;21.05;7.55;;;;;;;;;;4935496;28;107023;-65
2022/01/31 02:43:34;;;;;;;18.83;7.00;;;;;;;;;;4932842;28;107061;-62
2022/01/31 02:46:04;;;;;;;23.40;6.95;;;;;;;;;;4913598;28;105862;-63
2022/01/31 02:48:34;;;;;;;24.27;7.45;;;;;;;;;;4911030;28;108822;-62
2022/01/31 02:51:03;;;;;;;18.77;6.40;;;;;;;;;;4913464;28;108639;-62
2022/01/31 02:53:32;;;;;;;13.33;5.43;;;;;;;;;;4929346;28;106142;-64
2022/01/31 02:56:00;;;;;;;33.67;6.10;;;;;;;;;;4927516;28;108247;-65
2022/01/31 02:58:27;;;;;;;22.05;6.25;;;;;;;;;;4904782;28;108414;-62
2022/01/31 03:00:54;;;;;;;19.13;4.65;;;;;;;;;;4925170;28;106887;-62
2022/01/31 03:03:41;;;;;;;24.13;4.55;;;;;;;;;;4928691;28;106913;-62
2022/01/31 03:06:08;;;;;;;23.00;3.45;;;;;;;;;;4932616;28;107436;-63
2022/01/31 03:08:36;;;;;;;22.23;3.85;;;;;;;;;;4926057;28;108042;-62
2022/01/31 03:11:17;;;;;;;25.42;4.05;;;;;;;;;;4930886;28;108759;-62
2022/01/31 03:13:52;;;;;;;28.00;3.10;;;;;;;;;;4943458;28;106332;-65
2022/01/31 03:16:18;;;;;;;22.67;3.30;;;;;;;;;;4913635;28;109316;-65
2022/01/31 03:19:15;;;;;;;25.00;3.30;;;;;;;;;;4926519;28;106710;-62
2022/01/31 03:21:46;;;;;;;22.17;3.03;;;;;;;;;;4908923;28;106136;-63
2022/01/31 03:24:12;;;;;;;19.50;2.90;;;;;;;;;;4924402;28;106670;-64
2022/01/31 03:26:39;;;;;;;20.20;3.30;;;;;;;;;;4926980;28;107808;-65
2022/01/31 03:29:06;;;;;;;25.08;3.10;;;;;;;;;;4942164;28;106047;-63
2022/01/31 03:31:33;;;;;;;25.48;3.72;;;;;;;;;;4928518;28;107726;-64
2022/01/31 03:34:00;;;;;;;19.92;3.60;;;;;;;;;;4913637;28;106311;-64
2022/01/31 03:36:26;;;;;;;25.20;2.85;;;;;;;;;;4926238;28;108765;-64
2022/01/31 03:38:53;;;;;;;20.63;2.88;;;;;;;;;;4925804;28;108477;-64
2022/01/31 03:41:21;;;;;;;22.25;2.70;;;;;;;;;;4918686;28;106545;-63
2022/01/31 03:43:48;;;;;;;24.70;3.53;;;;;;;;;;4911951;28;108516;-64
2022/01/31 03:46:14;;;;;;;20.75;2.55;;;;;;;;;;4928480;28;106456;-63
2022/01/31 03:48:41;;;;;;;19.90;2.72;;;;;;;;;;4922277;28;106550;-63
2022/01/31 03:51:25;;;;;;;20.02;2.78;;;;;;;;;;4942068;28;108223;-63
2022/01/31 03:53:51;;;;;;;15.30;3.00;;;;;;;;;;4916088;28;105904;-63
2022/01/31 03:56:19;;;;;;;14.93;2.60;;;;;;;;;;4925550;28;106783;-63
2022/01/31 03:58:58;;;;;;;20.17;2.72;;;;;;;;;;4915734;28;108510;-63
2022/01/31 04:01:26;;;;;;;20.77;2.45;;;;;;;;;;4926318;28;108326;-63
2022/01/31 04:03:52;;;;;;;14.93;2.45;;;;;;;;;;4929428;28;106150;-63
2022/01/31 04:06:19;;;;;;;20.70;2.72;;;;;;;;;;4926101;28;106321;-63
2022/01/31 04:08:45;;;;;;;15.93;2.63;;;;;;;;;;4928476;28;107092;-63
2022/01/31 04:11:11;;;;;;;21.95;2.70;;;;;;;;;;4925599;28;107275;-63
2022/01/31 04:13:38;;;;;;;16.50;2.55;;;;;;;;;;4930009;28;107112;-63
2022/01/31 04:16:04;;;;;;;16.90;2.80;;;;;;;;;;4928745;28;105876;-63
2022/01/31 04:18:31;;;;;;;18.83;2.72;;;;;;;;;;4927144;28;106769;-63
2022/01/31 04:20:57;;;;;;;19.05;2.78;;;;;;;;;;4928125;28;107783;-63
2022/01/31 04:23:27;;;;;;;36.08;4.32;;;;;;;;;;4928481;28;107309;-63
2022/01/31 04:26:01;;;;;;;21.35;3.00;;;;;;;;;;4926704;28;106732;-63
2022/01/31 04:28:38;;;;;;;24.50;3.03;;;;;;;;;;4927262;28;105871;-64
2022/01/31 04:33:47;;;;;;;17.92;3.15;;;;;;;;;;4922888;28;106859;-64
2022/01/31 04:36:14;;;;;;;18.20;4.10;;;;;;;;;;4930918;28;106451;-64
2022/01/31 04:38:45;;;;;;;17.98;2.50;;;;;;;;;;4931478;28;106797;-63
2022/01/31 04:41:11;;;;;;;15.82;2.35;;;;;;;;;;4924815;28;107080;-64
2022/01/31 04:43:38;;;;;;;20.13;2.58;;;;;;;;;;4931096;28;107588;-64
2022/01/31 04:46:06;;;;;;;24.27;2.90;;;;;;;;;;4929619;28;106195;-64
2022/01/31 04:48:33;;;;;;;17.55;2.60;;;;;;;;;;4930506;28;106782;-64
2022/01/31 04:51:00;;;;;;;22.13;3.15;;;;;;;;;;4931308;28;106846;-63
2022/01/31 04:53:26;;;;;;;18.50;3.20;;;;;;;;;;4927239;28;106885;-63
2022/01/31 04:55:53;;;;;;;20.80;2.55;;;;;;;;;;4933969;28;105950;-64
2022/01/31 04:58:23;;;;;;;22.70;2.72;;;;;;;;;;4929488;28;106969;-63
2022/01/31 05:00:49;;;;;;;22.52;2.72;;;;;;;;;;4930708;28;106110;-63
2022/01/31 05:03:18;;;;;;;20.85;3.38;;;;;;;;;;4928569;28;106501;-64
2022/01/31 05:05:46;;;;;;;22.13;3.17;;;;;;;;;;4930237;28;106308;-64
2022/01/31 05:08:13;;;;;;;19.58;2.70;;;;;;;;;;4929906;28;105906;-64
2022/01/31 05:10:45;;;;;;;26.73;3.20;;;;;;;;;;4924830;28;107857;-64
2022/01/31 05:13:12;;;;;;;24.85;3.17;;;;;;;;;;4926873;28;106184;-64
2022/01/31 05:15:39;;;;;;;22.27;3.22;;;;;;;;;;4929335;28;106078;-63
2022/01/31 05:18:06;;;;;;;16.65;2.53;;;;;;;;;;4932216;28;106349;-64
2022/01/31 05:20:32;;;;;;;13.25;2.22;;;;;;;;;;4931577;28;106284;-64
2022/01/31 05:22:59;;;;;;;17.50;1.58;;;;;;;;;;4924448;28;106126;-64
2022/01/31 05:25:25;;;;;;;12.93;2.03;;;;;;;;;;4929268;28;106303;-64
2022/01/31 05:27:52;;;;;;;12.98;1.83;;;;;;;;;;4930816;28;106551;-64
2022/01/31 05:30:18;;;;;;;12.02;1.92;;;;;;;;;;4929416;28;107378;-64
2022/01/31 05:32:44;;;;;;;9.38;1.52;;;;;;;;;;4930816;28;106132;-64
2022/01/31 05:35:11;;;;;;;10.77;1.92;;;;;;;;;;4929208;28;105921;-64
2022/01/31 05:37:37;;;;;;;19.90;1.77;;;;;;;;;;4930734;28;107214;-66
2022/01/31 05:40:04;;;;;;;15.27;2.03;;;;;;;;;;4932576;28;106292;-65
2022/01/31 05:42:31;;;;;;;9.02;1.70;;;;;;;;;;4929196;28;107472;-64
2022/01/31 05:44:57;;;;;;;15.50;2.22;;;;;;;;;;4928982;28;106864;-64
2022/01/31 05:47:23;;;;;;;15.40;1.95;;;;;;;;;;4928264;28;106388;-63
2022/01/31 05:49:50;;;;;;;19.10;2.70;;;;;;;;;;4930160;28;106304;-63
2022/01/31 05:52:17;;;;;;;18.80;2.38;;;;;;;;;;4930151;28;109398;-63
2022/01/31 05:54:43;;;;;;;22.02;2.70;;;;;;;;;;4931263;28;105993;-63
2022/01/31 05:57:10;;;;;;;15.57;2.38;;;;;;;;;;4929734;28;105876;-64
2022/01/31 05:59:40;;;;;;;23.73;3.28;;;;;;;;;;4928199;28;106358;-65
2022/01/31 06:02:06;;;;;;;;;;;;;;;;;;4934388;28;105996;-64
2022/01/31 06:04:33;;;;;;;20.15;3.28;;;;;;;;;;4922016;28;135839;-63
2022/01/31 06:07:00;;;;;;;25.23;3.25;;;;;;;;;;4930586;28;105570;-64
2022/01/31 06:09:27;;;;;;;33.30;4.82;;;;;;;;;;4938506;28;107786;-63
2022/01/31 06:11:54;;;;;;;25.98;3.22;;;;;;;;;;4927939;28;107724;-63
2022/01/31 06:14:21;;;;;;;23.10;3.10;;;;;;;;;;4929182;28;106888;-63
2022/01/31 06:16:47;;;;;;;30.30;4.10;;;;;;;;;;4930062;28;106053;-63
2022/01/31 06:19:14;;;;;;;22.40;2.70;;;;;;;;;;4928399;28;106317;-63
2022/01/31 06:21:41;;;;;;;18.00;2.47;;;;;;;;;;4932818;28;105713;-63
2022/01/31 06:24:09;;;;;;;28.02;2.78;;;;;;;;;;4928568;28;107357;-65
2022/01/31 06:26:36;;;;;;;22.73;3.30;;;;;;;;;;4922030;28;105963;-63
2022/01/31 06:29:20;;;;;;;21.38;2.30;;;;;;;;;;4927537;28;108422;-63
2022/01/31 06:31:53;;;;;;;35.15;3.17;;;;;;;;;;4919771;28;108758;-63
2022/01/31 06:34:19;;;;;;;23.20;2.70;;;;;;;;;;4929845;28;107403;-63
2022/01/31 06:36:46;;;;;;;20.25;3.17;;;;;;;;;;4927532;28;106802;-64
2022/01/31 06:39:13;;;;;;;27.85;4.25;;;;;;;;;;4928162;28;107835;-64
2022/01/31 06:41:39;;;;;;;24.08;3.13;;;;;;;;;;4930192;28;107180;-64
2022/01/31 06:44:05;;;;;;;25.10;3.13;;;;;;;;;;4931861;28;105787;-64
2022/01/31 06:46:32;;;;;;;20.38;3.03;;;;;;;;;;4928730;28;107248;-64
2022/01/31 06:48:58;;;;;;;21.00;2.42;;;;;;;;;;4929739;28;106758;-64
2022/01/31 06:51:25;;;;;;;18.50;2.15;;;;;;;;;;4926994;28;107403;-63
2022/01/31 06:53:55;;;;;;;23.75;2.35;;;;;;;;;;4929185;28;106221;-64
2022/01/31 06:56:29;;;;;;;26.05;3.33;;;;;;;;;;4928818;28;106906;-63
2022/01/31 06:58:56;;;;;;;27.30;2.95;;;;;;;;;;4926469;28;109135;-63
2022/01/31 07:01:25;;;;;;;28.02;3.05;;;;;;;;;;4928559;28;107143;-64
2022/01/31 07:03:53;;;;;;;24.27;2.97;;;;;;;;;;4928685;28;107246;-63
2022/01/31 07:06:21;;;;;;;21.67;3.17;;;;;;;;;;4930857;28;108161;-63
2022/01/31 07:08:48;;;;;;;27.52;3.22;;;;;;;;;;4929678;28;107244;-63
2022/01/31 07:11:20;;;;;;;27.33;2.63;;;;;;;;;;4914419;28;106351;-63
2022/01/31 07:13:48;;;;;;;15.30;2.42;;;;;;;;;;4927391;28;105860;-64
2022/01/31 07:16:15;;;;;;;22.45;3.17;;;;;;;;;;4928481;28;107473;-64
2022/01/31 07:18:43;;;;;;;21.40;2.65;;;;;;;;;;4927747;28;106408;-63
2022/01/31 07:21:14;;;;;;;13.00;1.85;;;;;;;;;;4927293;28;106124;-64
2022/01/31 07:24:03;;;;;;;26.52;3.28;;;;;;;;;;4926646;28;106782;-64
2022/01/31 07:26:32;;;;;;;21.13;3.58;;;;;;;;;;4928127;28;107624;-64
2022/01/31 07:28:59;;;;;;;25.33;3.03;;;;;;;;;;4930238;28;105954;-63
2022/01/31 07:31:25;;;;;;;22.90;2.60;;;;;;;;;;4927718;28;106418;-63
2022/01/31 07:33:52;;;;;;;19.33;2.42;;;;;;;;;;4917109;28;105909;-64
2022/01/31 07:36:18;;;;;;;23.30;3.90;;;;;;;;;;4927682;28;106628;-64
2022/01/31 07:38:44;;;;;;;16.92;2.67;;;;;;;;;;4927613;28;106467;-64
2022/01/31 07:41:14;;;;;;;21.92;3.85;;;;;;;;;;4927159;28;106085;-64
2022/01/31 07:43:43;;;;;;;;;;;;;;;;;;4928358;28;107187;-64
2022/01/31 07:46:13;;;;;;;19.98;2.78;;;;;;;;;;4925298;28;137338;-64
2022/01/31 07:48:40;;;;;;;25.58;4.30;;;;;;;;;;4926280;28;105985;-64
2022/01/31 07:51:08;;;;;;;23.23;2.65;;;;;;;;;;4931788;28;107316;-64
2022/01/31 07:53:37;;;;;;;35.92;4.25;;;;;;;;;;4927117;28;105780;-63
2022/01/31 07:56:07;;;;;;;25.65;2.78;;;;;;;;;;4916770;28;107036;-64
2022/01/31 07:58:37;;;;;;;32.95;3.28;;;;;;;;;;4927293;28;107741;-63
2022/01/31 08:01:04;;;;;;;27.98;3.45;;;;;;;;;;4928485;28;106007;-64
2022/01/31 08:03:31;;;;;;;29.27;3.85;;;;;;;;;;4925185;28;106715;-63
2022/01/31 08:05:58;;;;;;;28.25;3.75;;;;;;;;;;4926151;28;107356;-65
2022/01/31 08:08:24;;;;;;;36.15;4.15;;;;;;;;;;4928084;28;106285;-62
2022/01/31 08:10:51;;;;;;;20.58;2.40;;;;;;;;;;4921402;28;106820;-64
2022/01/31 08:13:17;;;;;;;19.77;3.45;;;;;;;;;;4931400;28;107306;-66
2022/01/31 08:15:47;;;;;;;31.63;3.25;;;;;;;;;;4923743;28;106590;-63
2022/01/31 08:18:13;;;;;;;;;;;;;;;;;;4929915;28;106620;-66
2022/01/31 08:20:43;;;;;;;24.43;3.20;;;;;;;;;;4926047;28;119992;-63
2022/01/31 08:23:10;;;;;;;28.02;2.63;;;;;;;;;;4929806;28;106778;-65
2022/01/31 08:25:37;;;;;;;21.80;2.72;;;;;;;;;;4929167;28;107430;-65
2022/01/31 08:28:09;;;;;;;21.25;3.67;;;;;;;;;;4930417;28;106309;-67
2022/01/31 08:30:44;;;;;;;26.48;3.70;;;;;;;;;;4922926;28;107600;-64
2022/01/31 08:33:25;;;;;;;38.42;3.92;;;;;;;;;;4932948;28;107937;-65
2022/01/31 08:35:52;;;;;;;22.98;3.05;;;;;;;;;;4929635;28;106457;-65
2022/01/31 08:38:18;;;;;;;36.05;3.60;;;;;;;;;;4929621;28;106904;-65
2022/01/31 08:40:45;;;;;;;30.13;3.38;;;;;;;;;;4927359;28;106388;-65
2022/01/31 08:43:14;;;;;;;27.70;3.08;;;;;;;;;;4930240;28;107050;-65
2022/01/31 08:45:40;;;;;;;18.38;3.47;;;;;;;;;;4929172;28;107424;-65
2022/01/31 08:48:07;;;;;;;23.15;3.28;;;;;;;;;;4929491;28;107146;-67
2022/01/31 08:50:34;;;;;;;25.40;3.20;;;;;;;;;;4929196;28;106485;-64
2022/01/31 08:53:00;;;;;;;34.10;4.70;;;;;;;;;;4929803;28;106924;-63
2022/01/31 08:55:27;;;;;;;37.33;4.18;;;;;;;;;;4932138;28;107198;-63
2022/01/31 08:57:56;;;;;;;28.52;3.33;;;;;;;;;;4927751;28;107558;-65
2022/01/31 09:00:33;;;;;;;27.67;3.37;;;;;;;;;;4929418;28;107031;-64
2022/01/31 09:03:21;;;;;;;40.38;4.47;;;;;;;;;;4929450;28;108721;-64
2022/01/31 09:05:48;;;;;;;18.43;4.23;;;;;;;;;;4908675;28;107391;-63
2022/01/31 09:08:14;;;;;;;25.20;4.13;;;;;;;;;;4930482;28;105899;-64
2022/01/31 09:10:43;;;;;;;31.20;3.95;;;;;;;;;;4929638;28;106339;-64
2022/01/31 09:13:12;;;;;;;37.17;3.53;;;;;;;;;;4929538;28;107717;-64
2022/01/31 09:15:39;;;;;;;28.37;4.40;;;;;;;;;;4931087;28;106918;-64
2022/01/31 09:18:06;;;;;;;17.40;3.70;;;;;;;;;;4935056;28;106533;-64
2022/01/31 09:20:32;;;;;;;28.10;3.25;;;;;;;;;;4929504;28;105931;-63
2022/01/31 09:23:04;;;;;;;33.25;3.58;;;;;;;;;;4929912;28;105871;-65
2022/01/31 09:25:31;;;;;;;31.52;4.30;;;;;;;;;;4930085;28;106958;-63
2022/01/31 09:27:58;;;;;;;26.88;3.45;;;;;;;;;;4915327;28;107550;-64
2022/01/31 09:30:27;;;;;;;24.42;3.40;;;;;;;;;;4928778;28;107302;-64
2022/01/31 09:32:57;;;;;;;36.47;3.60;;;;;;;;;;4930540;28;108366;-66
2022/01/31 09:35:25;;;;;;;28.80;3.33;;;;;;;;;;4925302;28;106502;-65
2022/01/31 09:37:51;;;;;;;26.42;3.95;;;;;;;;;;4926865;28;106560;-66
2022/01/31 09:40:20;;;;;;;32.63;3.60;;;;;;;;;;4932443;28;107296;-64
2022/01/31 09:43:08;;;;;;;24.33;3.45;;;;;;;;;;4929500;28;106850;-64
2022/01/31 09:50:58;;;;;;;28.35;4.18;;;;;;;;;;4922054;28;106837;-65
2022/01/31 09:53:24;;;;;;;35.63;5.13;;;;;;;;;;4927043;28;106238;-64
2022/01/31 09:55:53;;;;;;;33.92;5.68;;;;;;;;;;4937939;28;106184;-66
2022/01/31 09:58:19;;;;;;;32.85;5.18;;;;;;;;;;4928402;28;106810;-66
2022/01/31 10:00:46;;;;;;;50.22;6.30;;;;;;;;;;4928021;28;107590;-65
2022/01/31 10:03:12;;;;;;;49.75;6.38;;;;;;;;;;4933898;28;106597;-65
2022/01/31 10:05:40;;;;;;;29.73;4.55;;;;;;;;;;4928280;28;107790;-66
2022/01/31 10:08:09;;;;;;;41.60;5.45;;;;;;;;;;4929202;28;106908;-64
2022/01/31 10:10:41;;;;;;;47.05;6.50;;;;;;;;;;4922472;28;106764;-64
2022/01/31 10:16:32;;;;;;;40.90;5.20;;;;;;;;;;4837976;28;106990;-65
2022/01/31 10:19:19;;;;;;;44.60;5.55;;;;;;;;;;4839294;28;106488;-63
2022/01/31 10:21:59;;;;;;;52.63;5.57;;;;;;;;;;4909397;28;107500;-63
2022/01/31 10:24:26;;;;;;;39.00;4.85;;;;;;;;;;4930402;28;106605;-64
2022/01/31 10:26:52;;;;;;;37.97;5.13;;;;;;;;;;4932184;28;107360;-65
2022/01/31 10:29:20;;;;;;;39.15;4.85;;;;;;;;;;4923631;28;106050;-64
2022/01/31 10:32:23;;;;;;;34.22;3.78;;;;;;;;;;4930061;28;105997;-65
2022/01/31 10:34:57;;;;;;;23.73;3.67;;;;;;;;;;4905981;28;107088;-64
2022/01/31 10:37:25;;;;;;;29.48;4.60;;;;;;;;;;4924773;28;105623;-64
2022/01/31 10:46:33;;;;;;;34.17;3.73;;;;;;;;;;4927771;28;106496;-66
2022/01/31 10:56:49;;;;;;;31.25;3.97;;;;;;;;;;4929278;28;108147;-67
2022/01/31 10:59:17;;;;;;;30.10;3.55;;;;;;;;;;4927928;28;106769;-67
2022/01/31 11:01:45;;;;;;;31.02;4.32;;;;;;;;;;4929857;28;107674;-68
2022/01/31 11:04:37;;;;;;;32.42;4.55;;;;;;;;;;4929635;28;107723;-70
2022/01/31 11:07:06;;;;;;;28.27;4.10;;;;;;;;;;4926326;28;106175;-65
2022/01/31 11:09:33;;;;;;;40.63;4.57;;;;;;;;;;4927747;28;106773;-64
2022/01/31 11:11:59;;;;;;;35.72;4.22;;;;;;;;;;4929568;28;106483;-65
2022/01/31 11:14:26;;;;;;;30.80;3.75;;;;;;;;;;4928279;28;107236;-65
2022/01/31 11:16:56;;;;;;;32.35;4.28;;;;;;;;;;4929352;28;107358;-67
2022/01/31 11:19:31;;;;;;;38.65;4.93;;;;;;;;;;4929305;28;106242;-67
2022/01/31 11:22:01;;;;;;;35.63;4.65;;;;;;;;;;4928514;28;108022;-66
2022/01/31 11:24:31;;;;;;;28.90;4.95;;;;;;;;;;4929148;28;106963;-65
2022/01/31 11:27:10;;;;;;;40.25;5.20;;;;;;;;;;4925704;28;106144;-63
2022/01/31 11:29:39;;;;;;;31.75;4.28;;;;;;;;;;4928254;28;106961;-66
2022/01/31 11:32:06;;;;;;;36.30;4.35;;;;;;;;;;4928010;28;106509;-67
2022/01/31 11:34:34;;;;;;;33.17;4.45;;;;;;;;;;4932141;28;106900;-65
2022/01/31 11:37:00;;;;;;;43.72;5.25;;;;;;;;;;4926400;28;107328;-65
2022/01/31 11:39:27;;;;;;;41.30;5.18;;;;;;;;;;4928028;28;107486;-65
2022/01/31 11:41:57;;;;;;;37.47;4.47;;;;;;;;;;4931219;28;107071;-65
2022/01/31 11:44:29;;;;;;;29.63;3.60;;;;;;;;;;4926600;28;108700;-66
2022/01/31 11:46:56;;;;;;;49.15;6.75;;;;;;;;;;4920747;28;105582;-65
2022/01/31 11:49:23;;;;;;;33.22;5.60;;;;;;;;;;4921852;28;107698;-65
2022/01/31 11:51:59;;;;;;;24.83;3.92;;;;;;;;;;4927224;28;107401;-65
2022/01/31 11:54:26;;;;;;;31.38;3.95;;;;;;;;;;4927540;28;106867;-65
2022/01/31 11:56:53;;;;;;;35.35;4.55;;;;;;;;;;4925397;28;107459;-66
2022/01/31 11:59:21;;;;;;;37.15;5.43;;;;;;;;;;4922338;28;106672;-65
2022/01/31 12:01:49;;;;;;;45.80;4.18;;;;;;;;;;4925401;28;107541;-66
2022/01/31 12:04:16;;;;;;;36.08;4.22;;;;;;;;;;4927493;28;106390;-65
2022/01/31 12:06:43;;;;;;;37.38;5.22;;;;;;;;;;4928130;28;106390;-65
2022/01/31 12:09:13;;;;;;;40.17;6.45;;;;;;;;;;4926931;28;106982;-65
2022/01/31 12:11:54;;;;;;;29.75;4.20;;;;;;;;;;4927818;28;106175;-65
2022/01/31 12:14:25;;;;;;;42.22;4.72;;;;;;;;;;4923279;28;106723;-66
2022/01/31 12:17:09;;;;;;;37.30;4.93;;;;;;;;;;4923520;28;106461;-66
2022/01/31 12:22:08;;;;;;;33.33;4.70;;;;;;;;;;4931058;28;107652;-66
2022/01/31 12:24:37;;;;;;;38.78;5.75;;;;;;;;;;4917058;28;107572;-66
2022/01/31 12:27:18;;;;;;;38.75;4.60;;;;;;;;;;4927272;28;106701;-66
2022/01/31 12:29:46;;;;;;;40.75;5.20;;;;;;;;;;4929256;28;106293;-67
2022/01/31 12:32:15;;;;;;;44.20;5.50;;;;;;;;;;4926445;28;106353;-67
2022/01/31 12:35:00;;;;;;;36.58;5.57;;;;;;;;;;4915657;28;105949;-66
2022/01/31 12:37:39;;;;;;;58.10;5.32;;;;;;;;;;4928298;28;106234;-65
2022/01/31 12:40:14;;;;;;;37.08;4.95;;;;;;;;;;4915094;28;107882;-68
2022/01/31 12:45:26;;;;;;;39.45;5.40;;;;;;;;;;4927226;28;108294;-68
2022/01/31 12:48:05;;;;;;;50.00;5.90;;;;;;;;;;4925663;28;107240;-66
2022/01/31 12:50:32;;;;;;;39.63;5.15;;;;;;;;;;4928879;28;107578;-66
2022/01/31 12:53:04;;;;;;;40.75;5.00;;;;;;;;;;4925185;28;107726;-67
2022/01/31 12:55:31;;;;;;;34.83;5.40;;;;;;;;;;4926180;28;106092;-67
2022/01/31 12:57:57;;;;;;;41.40;5.35;;;;;;;;;;4927170;28;106888;-67
2022/01/31 13:00:56;;;;;;;39.20;4.57;;;;;;;;;;4931252;28;106256;-67
2022/01/31 13:03:33;;;;;;;37.53;6.65;;;;;;;;;;4912230;28;106754;-65
2022/01/31 13:06:33;;;;;;;37.95;5.28;;;;;;;;;;4928977;28;107588;-66
2022/01/31 13:09:04;;;;;;;48.40;5.05;;;;;;;;;;4898904;28;106050;-65
2022/01/31 13:11:31;;;;;;;34.17;4.88;;;;;;;;;;4927628;28;107448;-66
2022/01/31 13:14:03;;;;;;;47.60;5.60;;;;;;;;;;4930653;28;106566;-66
2022/01/31 13:16:40;;;;;;;52.38;6.68;;;;;;;;;;4930949;28;105758;-66
2022/01/31 13:19:14;;;;;;;38.55;4.65;;;;;;;;;;4927492;28;106672;-67
2022/01/31 13:21:41;;;;;;;43.60;5.53;;;;;;;;;;4925519;28;107842;-65
2022/01/31 13:24:07;;;;;;;42.85;5.15;;;;;;;;;;4928245;28;106134;-66
2022/01/31 13:26:51;;;;;;;33.03;4.50;;;;;;;;;;4925732;28;106772;-65
2022/01/31 13:29:26;;;;;;;47.22;5.07;;;;;;;;;;4930372;28;106237;-65
2022/01/31 13:31:52;;;;;;;54.33;6.78;;;;;;;;;;4930106;28;107020;-65
2022/01/31 13:34:37;;;;;;;56.20;5.93;;;;;;;;;;4930969;28;106709;-65
2022/01/31 13:37:05;;;;;;;50.45;5.32;;;;;;;;;;4920871;28;106098;-66
2022/01/31 13:39:38;;;;;;;46.20;5.85;;;;;;;;;;4930052;28;106310;-66
2022/01/31 13:42:05;;;;;;;47.03;5.60;;;;;;;;;;4930753;28;106834;-67
2022/01/31 13:44:33;;;;;;;38.05;5.80;;;;;;;;;;4925612;28;106919;-66
2022/01/31 13:47:00;;;;;;;49.10;5.38;;;;;;;;;;4929388;28;106585;-66
2022/01/31 13:49:34;;;;;;;41.22;5.30;;;;;;;;;;4933789;28;108179;-66
2022/01/31 13:52:00;;;;;;;44.83;5.25;;;;;;;;;;4928708;28;107305;-66
2022/01/31 13:54:27;;;;;;;56.15;5.50;;;;;;;;;;4931035;28;107069;-67
2022/01/31 13:56:58;;;;;;;37.75;4.15;;;;;;;;;;4930467;28;106224;-68
2022/01/31 13:59:44;;;;;;;32.65;4.53;;;;;;;;;;4926493;28;106759;-67
2022/01/31 14:02:11;;;;;;;40.92;5.22;;;;;;;;;;4929216;28;107575;-67
2022/01/31 14:04:40;;;;;;;42.50;5.20;;;;;;;;;;4927865;28;107160;-67
2022/01/31 14:07:22;;;;;;;43.58;4.95;;;;;;;;;;4929124;28;107522;-67
2022/01/31 14:09:49;;;;;;;48.67;5.82;;;;;;;;;;4927680;28;107369;-67
2022/01/31 14:12:15;;;;;;;45.08;5.25;;;;;;;;;;4929348;28;105663;-65
2022/01/31 14:14:44;;;;;;;47.83;5.32;;;;;;;;;;4929893;28;107658;-68
2022/01/31 14:17:10;;;;;;;39.97;5.53;;;;;;;;;;4928981;28;105833;-66
2022/01/31 14:19:39;;;;;;;42.03;5.28;;;;;;;;;;4932075;28;106624;-65
2022/01/31 14:22:07;;;;;;;41.33;5.22;;;;;;;;;;4930395;28;107617;-66
2022/01/31 14:24:35;;;;;;;41.03;4.38;;;;;;;;;;4930218;28;106246;-66
2022/01/31 14:27:03;;;;;;;39.58;5.63;;;;;;;;;;4929189;28;106983;-64
2022/01/31 14:29:34;;;;;;;37.65;4.93;;;;;;;;;;4926831;28;106155;-67
2022/01/31 14:32:00;;;;;;;37.38;5.38;;;;;;;;;;4926779;28;105505;-67
2022/01/31 14:34:39;;;;;;;32.78;4.70;;;;;;;;;;4926028;28;105823;-67
2022/01/31 14:37:05;;;;;;;44.28;6.85;;;;;;;;;;4930941;28;106495;-68
2022/01/31 14:47:50;;;;;;;26.52;4.25;;;;;;;;;;4927865;28;106122;-66
2022/01/31 14:50:19;;;;;;;49.95;5.07;;;;;;;;;;4922280;28;109634;-67
2022/01/31 14:52:45;;;;;;;39.17;4.47;;;;;;;;;;4929397;28;106477;-66
2022/01/31 14:55:16;;;;;;;46.35;4.65;;;;;;;;;;4929271;28;105987;-66
2022/01/31 14:57:43;;;;;;;34.67;3.67;;;;;;;;;;4932026;28;106402;-66
2022/01/31 15:00:11;;;;;;;36.28;4.10;;;;;;;;;;4917025;28;106044;-66
2022/01/31 15:02:38;;;;;;;39.63;4.30;;;;;;;;;;4924429;28;107253;-66
2022/01/31 15:05:08;;;;;;;26.17;3.33;;;;;;;;;;4927395;28;106737;-66
2022/01/31 15:07:34;;;;;;;27.83;4.03;;;;;;;;;;4930129;28;106583;-66
2022/01/31 15:10:02;;;;;;;32.03;3.97;;;;;;;;;;4926182;28;107379;-66
2022/01/31 15:12:29;;;;;;;32.47;4.28;;;;;;;;;;4928082;28;106455;-66